Terminal Aerodrome Forecast
Issued by NWS Louisville, KY

Home | Current Version | Previous Version | Text Only | Print | Product List | Glossary On
Versions: 1 2 3 4 5 6 7 8 9 10 11 12 13 14
180
FTUS43 KLMK 071120
TAFBWG
TAF
KBWG 071120Z 0712/0812 VRB04KT P6SM FEW250
     FM071500 22012G18KT P6SM SCT150
     FM080000 22008KT P6SM BKN060
     FM080500 27008KT P6SM VCSH BKN035=

USA.gov is the U.S. government's official web portal to all federal, state and local government web resources and services.